Time;durP1;ratioP1;P1;durP2;ratioP2;P2;SDS_P1;SDS_P2;PMS_P1;PMS_P2;Temp;Humidity;BMP_temperature;BMP_pressure;BME280_temperature;BME280_humidity;BME280_pressure;Samples;Min_cycle;Max_cycle;Signal;HPM_P1;HPM_P2
2023/09/19 00:02:14;;;;;;;15.27;3.33;;;;;;;15.43;92.50;100689.91;5116562;27;20034;-62
2023/09/19 00:04:39;;;;;;;12.40;3.13;;;;;;;15.40;92.47;100698.81;5116382;28;20024;-61
2023/09/19 00:07:05;;;;;;;16.80;3.20;;;;;;;15.39;92.48;100697.06;5115426;28;20055;-61
2023/09/19 00:09:36;;;;;;;12.70;3.10;;;;;;;15.40;92.44;100697.94;5116478;28;20114;-62
2023/09/19 00:12:04;;;;;;;10.38;2.83;;;;;;;15.36;92.55;100699.75;5116490;28;20035;-62
2023/09/19 00:14:29;;;;;;;12.55;3.13;;;;;;;15.34;92.64;100709.53;5116149;28;20024;-62
2023/09/19 00:16:55;;;;;;;14.40;3.10;;;;;;;15.34;92.79;100708.66;5116098;28;20020;-62
2023/09/19 00:19:20;;;;;;;17.08;3.42;;;;;;;15.31;93.12;100706.03;5115848;27;20425;-61
2023/09/19 00:21:47;;;;;;;12.50;3.05;;;;;;;15.32;92.62;100708.66;5116345;28;20039;-61
2023/09/19 00:24:13;;;;;;;13.55;3.15;;;;;;;15.29;92.48;100706.06;5116215;28;20178;-62
2023/09/19 00:26:39;;;;;;;17.65;3.42;;;;;;;15.26;92.85;100717.59;5115921;28;20027;-61
2023/09/19 00:29:08;;;;;;;14.32;3.30;;;;;;;15.23;92.75;100712.31;5115845;28;20030;-62
2023/09/19 00:31:34;;;;;;;11.75;2.90;;;;;;;15.20;92.86;100717.69;5115822;28;20077;-62
2023/09/19 00:34:06;;;;;;;12.65;3.50;;;;;;;15.17;92.97;100722.16;5115801;28;20036;-61
2023/09/19 00:36:33;;;;;;;;;;;;;;;15.24;91.96;100729.16;5116171;27;20460;-60
2023/09/19 00:38:59;;;;;;;14.48;3.05;;;;;;;15.17;92.88;100731.00;5115359;28;19919;-61
2023/09/19 00:41:24;;;;;;;14.65;3.90;;;;;;;15.18;92.26;100734.56;5115587;28;20123;-61
2023/09/19 00:43:50;;;;;;;9.48;2.63;;;;;;;15.17;92.13;100741.66;5115838;28;20023;-62
2023/09/19 00:46:19;;;;;;;11.38;3.38;;;;;;;15.12;92.65;100735.50;5115788;28;20032;-61
2023/09/19 00:48:45;;;;;;;14.88;3.15;;;;;;;15.12;92.30;100740.84;5115500;28;20024;-61
2023/09/19 00:51:10;;;;;;;14.07;3.00;;;;;;;15.12;92.28;100737.28;5115602;27;20027;-61
2023/09/19 00:53:36;;;;;;;14.27;3.30;;;;;;;15.09;91.60;100747.97;5115482;28;20062;-62
2023/09/19 00:56:06;;;;;;;18.27;3.80;;;;;;;15.03;91.95;100747.13;5097106;28;20053;-60
2023/09/19 00:58:33;;;;;;;18.30;3.63;;;;;;;15.00;92.11;100752.47;5115593;28;20080;-62
2023/09/19 01:00:59;;;;;;;13.82;3.40;;;;;;;14.99;91.86;100756.03;5115479;28;20028;-60
2023/09/19 01:03:24;;;;;;;15.15;3.63;;;;;;;14.98;91.91;100759.56;5115123;28;20043;-62
2023/09/19 01:05:50;;;;;;;12.75;2.88;;;;;;;14.99;91.73;100763.13;5114620;28;20034;-61
2023/09/19 01:08:15;;;;;;;18.50;3.72;;;;;;;14.94;91.70;100768.47;5115207;28;20080;-62
2023/09/19 01:10:51;;;;;;;13.27;3.30;;;;;;;14.95;91.83;100761.38;5113790;28;20070;-61
2023/09/19 01:13:52;;;;;;;17.08;3.20;;;;;;;14.94;91.50;100770.25;5115444;28;20027;-60
2023/09/19 01:16:50;;;;;;;12.77;3.30;;;;;;;14.92;91.26;100778.25;5114464;28;20504;-62
2023/09/19 01:19:47;;;;;;;18.27;3.35;;;;;;;14.96;91.12;100779.13;5114998;28;20092;-62
2023/09/19 01:22:45;;;;;;;7.72;2.92;;;;;;;14.90;90.65;100777.41;5073117;28;20036;-61
2023/09/19 01:25:29;;;;;;;10.20;3.33;;;;;;;14.89;90.52;100775.59;5114813;28;20035;-61
2023/09/19 01:28:36;;;;;;;14.82;3.13;;;;;;;14.84;90.48;100776.53;5114766;28;20122;-62
2023/09/19 01:31:03;;;;;;;11.10;3.10;;;;;;;14.82;90.04;100784.56;5074670;28;20040;-61
2023/09/19 01:33:50;;;;;;;10.85;3.08;;;;;;;14.78;90.05;100782.81;5114676;28;20492;-63
2023/09/19 01:36:16;;;;;;;14.00;3.22;;;;;;;14.74;89.93;100776.63;5114603;28;20040;-62
2023/09/19 01:38:42;;;;;;;10.90;3.15;;;;;;;14.71;89.58;100783.75;5114267;28;20082;-62
2023/09/19 01:41:12;;;;;;;13.88;4.07;;;;;;;14.74;89.61;100789.91;5114481;28;20054;-60
2023/09/19 01:43:42;;;;;;;17.80;3.47;;;;;;;14.72;88.57;100790.81;5114551;28;20028;-61
2023/09/19 01:46:37;;;;;;;12.40;3.40;;;;;;;14.74;88.87;100795.25;5114334;28;20023;-61
2023/09/19 01:49:30;;;;;;;9.65;2.72;;;;;;;14.71;88.12;100797.03;5114698;28;20055;-61
2023/09/19 01:52:06;;;;;;;12.68;3.15;;;;;;;14.70;88.91;100800.59;5114415;28;20027;-62
2023/09/19 01:54:48;;;;;;;8.82;2.72;;;;;;;14.70;88.26;100801.47;5114439;28;20487;-61
2023/09/19 01:57:28;;;;;;;13.77;3.10;;;;;;;14.66;87.82;100798.84;5114377;28;20110;-62
2023/09/19 02:00:09;;;;;;;12.90;2.88;;;;;;;14.61;87.72;100792.69;5114321;28;20059;-60
2023/09/19 02:02:37;;;;;;;9.32;2.75;;;;;;;14.62;87.67;100792.66;5114032;28;20031;-62
2023/09/19 02:05:04;;;;;;;12.13;2.90;;;;;;;14.62;86.56;100791.78;5114090;28;20114;-62
2023/09/19 02:07:31;;;;;;;12.20;3.08;;;;;;;14.62;86.28;100790.00;5114047;28;20470;-61
2023/09/19 02:10:00;;;;;;;11.27;3.03;;;;;;;14.61;86.49;100793.56;5114265;28;20057;-60
2023/09/19 02:12:28;;;;;;;9.70;2.95;;;;;;;14.61;85.75;100792.69;5113954;28;20099;-62
2023/09/19 02:14:54;;;;;;;9.43;3.08;;;;;;;14.59;86.36;100792.66;5113951;28;20027;-61
2023/09/19 02:17:19;;;;;;;11.52;2.92;;;;;;;14.61;85.65;100800.66;5113736;28;20054;-60
2023/09/19 02:19:45;;;;;;;13.18;3.47;;;;;;;14.59;85.94;100798.00;5113921;28;20027;-61
2023/09/19 02:22:10;;;;;;;14.65;3.28;;;;;;;14.54;85.41;100789.16;5112541;28;20028;-61
2023/09/19 02:24:39;;;;;;;15.68;3.33;;;;;;;14.52;85.43;100802.47;5114061;28;20054;-62
2023/09/19 02:27:04;;;;;;;15.77;2.85;;;;;;;14.51;85.06;100799.81;5113789;28;20039;-60
2023/09/19 02:29:30;;;;;;;13.27;3.05;;;;;;;14.53;84.99;100801.59;5113714;28;20024;-60
2023/09/19 02:31:56;;;;;;;10.98;2.95;;;;;;;14.47;84.80;100796.28;5113541;28;20051;-61
2023/09/19 02:34:22;;;;;;;10.27;2.88;;;;;;;14.41;85.13;100801.63;5113627;28;20035;-61
2023/09/19 02:36:47;;;;;;;12.15;2.88;;;;;;;14.39;85.26;100811.41;5113666;28;20503;-61
2023/09/19 02:39:13;;;;;;;11.88;3.15;;;;;;;14.34;85.01;100804.31;5113404;28;20055;-62
2023/09/19 02:41:38;;;;;;;12.80;3.15;;;;;;;14.26;85.77;100807.00;5113800;28;20031;-61
2023/09/19 02:44:07;;;;;;;10.18;3.00;;;;;;;14.24;85.79;100812.34;5113565;28;20469;-60
2023/09/19 02:46:33;;;;;;;12.75;2.92;;;;;;;14.23;85.43;100817.66;5113268;28;20532;-60
2023/09/19 02:48:59;;;;;;;15.80;2.83;;;;;;;14.23;85.68;100815.00;5113676;28;20123;-60
2023/09/19 02:51:24;;;;;;;14.07;3.00;;;;;;;14.24;85.63;100814.13;5113310;28;20032;-61
2023/09/19 02:53:52;;;;;;;11.65;2.90;;;;;;;14.20;85.11;100813.25;5113474;28;20110;-62
2023/09/19 02:56:18;;;;;;;11.98;3.28;;;;;;;14.15;84.68;100817.69;5113366;28;20059;-61
2023/09/19 02:58:44;;;;;;;8.05;2.63;;;;;;;14.11;84.64;100820.38;5113607;28;20055;-62
2023/09/19 03:01:12;;;;;;;11.27;2.88;;;;;;;14.05;84.45;100813.31;5113370;28;20488;-62
2023/09/19 03:03:39;;;;;;;10.70;2.70;;;;;;;14.07;84.49;100822.16;5113603;28;20038;-62
2023/09/19 03:06:05;;;;;;;14.32;2.80;;;;;;;14.06;84.63;100827.50;5113614;28;20028;-62
2023/09/19 03:08:31;;;;;;;9.57;2.83;;;;;;;14.06;83.52;100820.41;5113331;28;20027;-60
2023/09/19 03:10:56;;;;;;;10.52;2.70;;;;;;;14.00;83.57;100825.72;5113345;28;20039;-61
2023/09/19 03:13:22;;;;;;;9.93;2.90;;;;;;;13.99;83.92;100822.19;5113519;28;20034;-60
2023/09/19 03:15:50;;;;;;;12.75;3.00;;;;;;;13.99;83.72;100824.84;5113601;28;20121;-61
2023/09/19 03:18:15;;;;;;;8.52;2.70;;;;;;;13.97;83.44;100818.66;5113381;28;20035;-61
2023/09/19 03:20:41;;;;;;;9.07;2.95;;;;;;;13.93;83.42;100813.38;5113339;28;20381;-59
2023/09/19 03:23:07;;;;;;;9.27;2.90;;;;;;;13.92;83.53;100817.81;5113185;28;20419;-62
2023/09/19 03:25:34;;;;;;;8.93;2.70;;;;;;;13.87;83.54;100806.28;5111877;28;20020;-61
2023/09/19 03:28:00;;;;;;;11.57;2.83;;;;;;;13.87;83.68;100819.56;5115071;28;20055;-61
2023/09/19 03:30:26;;;;;;;9.55;3.00;;;;;;;13.87;83.98;100821.34;5117001;28;20059;-62
2023/09/19 03:32:51;;;;;;;10.65;3.03;;;;;;;13.92;84.33;100816.91;5116826;28;20118;-60
2023/09/19 03:35:18;;;;;;;14.65;3.05;;;;;;;13.95;83.93;100815.13;5117151;28;20128;-62
2023/09/19 03:37:43;;;;;;;11.77;2.97;;;;;;;13.92;83.61;100820.47;5116700;28;20522;-61
2023/09/19 03:40:10;;;;;;;9.23;2.55;;;;;;;13.94;83.91;100821.31;5116742;28;20044;-63
2023/09/19 03:42:39;;;;;;;12.57;3.10;;;;;;;13.95;84.28;100814.22;5116951;27;20035;-61
2023/09/19 03:45:06;;;;;;;11.45;3.00;;;;;;;13.95;84.27;100804.47;5117071;28;20032;-63
2023/09/19 03:47:32;;;;;;;10.27;2.67;;;;;;;13.91;84.03;100804.50;5116722;28;20035;-61
2023/09/19 03:49:58;;;;;;;8.40;3.00;;;;;;;13.89;84.24;100806.31;5116670;28;20027;-62
2023/09/19 03:52:24;;;;;;;14.65;2.92;;;;;;;13.86;84.40;100806.31;5116896;28;20381;-61
2023/09/19 03:54:50;;;;;;;12.00;2.85;;;;;;;13.85;84.80;100801.88;5116716;27;20024;-61
2023/09/19 03:57:20;;;;;;;11.75;2.80;;;;;;;13.85;84.55;100805.41;5116614;27;20040;-60
2023/09/19 03:59:46;;;;;;;10.50;2.63;;;;;;;13.86;84.65;100811.63;5116624;28;20035;-63
2023/09/19 04:02:21;;;;;;;12.40;3.00;;;;;;;13.88;84.99;100808.06;5116401;28;20554;-61
2023/09/19 04:04:53;;;;;;;14.43;3.00;;;;;;;13.86;85.18;100801.88;5116434;28;20031;-61
2023/09/19 04:07:19;;;;;;;15.32;3.40;;;;;;;13.88;85.50;100809.84;5116398;28;20042;-62
2023/09/19 04:09:45;;;;;;;14.68;3.40;;;;;;;13.89;85.56;100806.31;5116316;28;20485;-62
2023/09/19 04:12:11;;;;;;;12.73;3.00;;;;;;;13.88;85.86;100799.22;5116272;28;20032;-60
2023/09/19 04:14:38;;;;;;;10.85;2.90;;;;;;;13.88;86.33;100808.06;5116178;28;20024;-60
2023/09/19 04:17:05;;;;;;;12.93;2.92;;;;;;;13.87;86.51;100800.09;5114906;28;20028;-63
2023/09/19 04:19:30;;;;;;;13.95;3.13;;;;;;;13.83;86.66;100793.03;5115855;28;20540;-62
2023/09/19 04:21:55;;;;;;;14.05;3.22;;;;;;;13.89;86.62;100814.25;5116492;28;20091;-61
2023/09/19 04:24:21;;;;;;;11.30;3.00;;;;;;;13.89;86.89;100823.13;5116220;28;20393;-62
2023/09/19 04:26:47;;;;;;;11.30;2.85;;;;;;;13.91;86.99;100831.06;5116231;28;20034;-61
2023/09/19 04:29:13;;;;;;;9.18;2.97;;;;;;;13.92;87.25;100848.81;5116092;28;20101;-62
2023/09/19 04:31:40;;;;;;;9.30;2.72;;;;;;;13.91;87.16;100831.06;5116026;28;20035;-61
2023/09/19 04:34:05;;;;;;;12.27;3.05;;;;;;;13.88;87.18;100845.25;5115848;28;20037;-62
2023/09/19 04:36:31;;;;;;;13.93;2.88;;;;;;;13.88;87.72;100844.38;5116198;28;20110;-62
2023/09/19 04:38:56;;;;;;;11.80;2.80;;;;;;;13.90;87.38;100853.22;5114457;27;20060;-61
2023/09/19 04:41:22;;;;;;;15.00;3.15;;;;;;;13.87;88.38;100859.41;5116027;28;20430;-60
2023/09/19 04:43:49;;;;;;;11.82;3.10;;;;;;;13.92;87.94;100864.75;5115675;28;20031;-61
2023/09/19 04:46:15;;;;;;;12.80;3.13;;;;;;;13.90;88.22;100869.16;5115915;28;20032;-61
2023/09/19 04:48:41;;;;;;;13.07;3.25;;;;;;;13.89;88.32;100867.41;5115375;28;20384;-62
2023/09/19 04:51:06;;;;;;;9.88;2.90;;;;;;;13.94;88.37;100873.56;5115531;28;20059;-60
2023/09/19 04:53:32;;;;;;;13.63;3.15;;;;;;;13.96;88.65;100875.34;5115765;28;20486;-62
2023/09/19 04:55:58;;;;;;;10.85;2.90;;;;;;;13.96;88.57;100880.66;5115783;28;20039;-61
2023/09/19 04:58:23;;;;;;;14.82;3.30;;;;;;;14.03;88.55;100884.16;5115293;28;20059;-61
2023/09/19 05:00:51;;;;;;;10.75;2.90;;;;;;;14.04;88.55;100885.94;5115316;28;20027;-62
2023/09/19 05:03:16;;;;;;;13.05;3.13;;;;;;;14.06;88.59;100881.50;5115394;28;20058;-63
2023/09/19 05:05:42;;;;;;;9.50;2.92;;;;;;;14.06;88.32;100876.19;5115168;28;20028;-62
2023/09/19 05:08:09;;;;;;;9.77;2.70;;;;;;;14.07;88.41;100885.06;5115245;28;20063;-62
2023/09/19 05:10:37;;;;;;;10.05;3.22;;;;;;;14.05;88.37;100882.41;5114976;28;20109;-61
2023/09/19 05:13:04;;;;;;;12.63;3.22;;;;;;;14.03;88.35;100886.81;5114978;28;20419;-62
2023/09/19 05:15:30;;;;;;;14.20;2.88;;;;;;;13.99;88.67;100874.44;5114879;27;20512;-62
2023/09/19 05:17:56;;;;;;;12.13;3.25;;;;;;;13.97;88.90;100877.09;5114600;28;20107;-60
2023/09/19 05:20:29;;;;;;;13.40;3.10;;;;;;;13.98;89.09;100875.34;5114529;28;20115;-62
2023/09/19 05:23:12;;;;;;;10.10;2.60;;;;;;;14.01;89.11;100885.97;5114625;28;20388;-62
2023/09/19 05:25:39;;;;;;;13.02;3.20;;;;;;;13.99;89.29;100896.56;5113256;28;20027;-62
2023/09/19 05:28:07;;;;;;;13.27;3.08;;;;;;;13.99;89.23;100883.28;5114218;28;20533;-62
2023/09/19 05:30:33;;;;;;;10.80;2.95;;;;;;;13.96;89.60;100888.63;5114000;28;20110;-62
2023/09/19 05:32:59;;;;;;;11.55;2.90;;;;;;;13.97;89.62;100901.03;5114283;28;20036;-62
2023/09/19 05:35:25;;;;;;;11.95;3.15;;;;;;;14.01;89.53;100904.56;5114190;28;20050;-62
2023/09/19 05:37:51;;;;;;;15.45;3.28;;;;;;;14.00;89.84;100882.44;5113868;27;20111;-62
2023/09/19 05:40:18;;;;;;;13.10;2.97;;;;;;;14.01;90.04;100886.84;5113675;28;20055;-60
2023/09/19 05:42:43;;;;;;;12.23;2.90;;;;;;;14.03;89.96;100898.34;5113818;28;20024;-62
2023/09/19 05:45:13;;;;;;;12.95;3.03;;;;;;;14.02;90.21;100904.53;5113562;27;20027;-61
2023/09/19 05:47:45;;;;;;;10.63;3.00;;;;;;;14.04;90.81;100897.44;5113929;28;20027;-61
2023/09/19 05:50:11;;;;;;;9.52;2.88;;;;;;;14.06;90.74;100900.13;5113279;28;20043;-61
2023/09/19 05:52:37;;;;;;;11.15;3.10;;;;;;;14.10;90.28;100893.91;5113683;28;20028;-62
2023/09/19 05:55:07;;;;;;;12.00;3.30;;;;;;;14.07;90.89;100896.56;5114032;28;20031;-62
2023/09/19 05:57:35;;;;;;;13.02;3.08;;;;;;;14.08;90.93;100887.69;5113613;28;20077;-61
2023/09/19 06:00:01;;;;;;;13.30;3.13;;;;;;;14.07;90.95;100891.25;5113689;28;20020;-62
2023/09/19 06:02:28;;;;;;;11.68;3.00;;;;;;;14.11;91.22;100886.81;5113600;28;20030;-61
2023/09/19 06:04:55;;;;;;;11.93;3.00;;;;;;;14.11;91.36;100893.00;5113568;28;20035;-62
2023/09/19 06:07:22;;;;;;;13.48;3.15;;;;;;;14.08;91.75;100898.31;5113223;28;20370;-61
2023/09/19 06:09:47;;;;;;;15.63;3.22;;;;;;;14.08;91.87;100897.44;5112052;28;20034;-62
2023/09/19 06:12:17;;;;;;;11.43;3.00;;;;;;;14.09;91.88;100901.84;5113350;28;20023;-61
2023/09/19 06:14:43;;;;;;;12.52;3.38;;;;;;;14.11;92.08;100898.31;5112097;28;20024;-61
2023/09/19 06:17:09;;;;;;;13.55;2.78;;;;;;;14.15;91.82;100891.22;5113039;28;20031;-61
2023/09/19 06:19:34;;;;;;;14.38;3.10;;;;;;;14.13;92.43;100904.53;5112890;28;20035;-62
2023/09/19 06:21:59;;;;;;;14.63;2.95;;;;;;;14.17;92.20;100911.56;5113205;28;20047;-61
2023/09/19 06:24:25;;;;;;;14.52;3.40;;;;;;;14.15;92.58;100900.09;5113008;28;20030;-62
2023/09/19 06:26:52;;;;;;;14.32;3.00;;;;;;;14.18;92.61;100912.50;5113305;28;20032;-61
2023/09/19 06:29:18;;;;;;;13.23;3.40;;;;;;;14.16;92.64;100909.81;5113190;28;20041;-62
2023/09/19 06:31:44;;;;;;;12.93;3.35;;;;;;;14.19;92.81;100916.91;5113070;28;20032;-62
2023/09/19 06:34:10;;;;;;;14.02;3.28;;;;;;;14.23;92.75;100916.88;5112825;28;20020;-62
2023/09/19 06:36:35;;;;;;;12.05;3.15;;;;;;;14.24;92.87;100923.97;5113113;28;20384;-62
2023/09/19 06:39:04;;;;;;;11.77;3.10;;;;;;;14.29;92.67;100932.81;5112558;28;20572;-61
2023/09/19 06:41:29;;;;;;;10.10;2.90;;;;;;;14.28;92.76;100927.50;5113191;28;20043;-62
2023/09/19 06:43:55;;;;;;;13.60;3.28;;;;;;;14.33;92.65;100923.06;5112886;28;20032;-62
2023/09/19 06:46:20;;;;;;;18.35;3.40;;;;;;;14.34;92.62;100930.13;5112018;28;20035;-62
2023/09/19 06:48:47;;;;;;;17.08;3.22;;;;;;;14.35;92.72;100929.25;5112765;28;20480;-62
2023/09/19 06:51:16;;;;;;;10.77;3.22;;;;;;;14.40;92.69;100932.78;5112951;28;20038;-62
2023/09/19 06:53:41;;;;;;;10.93;3.10;;;;;;;14.42;92.62;100932.78;5112783;28;20039;-61
2023/09/19 06:56:07;;;;;;;12.60;3.35;;;;;;;14.45;92.41;100933.66;5112688;28;20024;-61
2023/09/19 06:58:32;;;;;;;11.65;2.90;;;;;;;14.50;92.35;100941.63;5112707;28;20457;-61
2023/09/19 07:00:58;;;;;;;11.50;3.15;;;;;;;14.52;92.46;100924.81;5112507;28;20465;-62
2023/09/19 07:03:26;;;;;;;14.98;3.67;;;;;;;14.55;92.25;100923.88;5115783;28;20036;-62
2023/09/19 07:05:52;;;;;;;16.75;3.10;;;;;;;14.53;92.57;100920.38;5116851;28;20496;-62
2023/09/19 07:08:18;;;;;;;14.57;3.20;;;;;;;14.55;92.65;100917.69;5116840;28;20051;-62
2023/09/19 07:10:48;;;;;;;13.85;3.10;;;;;;;14.61;92.55;100925.66;5116715;28;20469;-62
2023/09/19 07:13:16;;;;;;;20.10;3.45;;;;;;;14.63;92.19;100938.03;5116907;28;20020;-62
2023/09/19 07:15:46;;;;;;;10.13;3.00;;;;;;;14.68;92.54;100938.88;5116866;28;20027;-61
2023/09/19 07:18:14;;;;;;;12.95;3.15;;;;;;;14.68;92.54;100928.25;5117003;28;20420;-61
2023/09/19 07:20:45;;;;;;;12.95;3.00;;;;;;;14.73;91.91;100939.78;5115271;28;20114;-61
2023/09/19 07:23:11;;;;;;;15.85;3.42;;;;;;;14.77;91.95;100935.31;5116825;28;20157;-62
2023/09/19 07:25:36;;;;;;;11.32;3.08;;;;;;;14.78;91.65;100940.63;5115955;28;20039;-62
2023/09/19 07:28:02;;;;;;;14.90;3.45;;;;;;;14.77;91.93;100935.31;5116647;28;20063;-61
2023/09/19 07:30:28;;;;;;;12.20;3.13;;;;;;;14.81;91.82;100933.50;5116732;28;20024;-62
2023/09/19 07:32:53;;;;;;;14.57;3.30;;;;;;;14.83;91.96;100935.28;5116534;28;20327;-61
2023/09/19 07:35:22;;;;;;;15.35;3.00;;;;;;;14.88;91.81;100930.81;5116662;28;20030;-61
2023/09/19 07:37:51;;;;;;;9.90;3.00;;;;;;;15.02;91.48;100939.59;5116135;28;20027;-62
2023/09/19 07:40:17;;;;;;;11.10;3.22;;;;;;;15.16;90.99;100933.31;5116089;27;20048;-62
2023/09/19 07:42:44;;;;;;;11.80;3.20;;;;;;;15.27;90.87;100940.31;5116252;28;20031;-61
2023/09/19 07:45:14;;;;;;;9.85;2.85;;;;;;;15.45;90.02;100944.63;5116116;28;20032;-61
2023/09/19 07:47:45;;;;;;;12.80;2.90;;;;;;;15.59;88.98;100949.88;5116032;28;20392;-62
2023/09/19 07:50:11;;;;;;;16.47;3.30;;;;;;;15.63;88.08;100951.63;5116250;27;20175;-61
2023/09/19 07:52:39;;;;;;;13.73;3.58;;;;;;;15.72;87.93;100946.25;5115878;28;20497;-62
2023/09/19 07:55:08;;;;;;;18.83;3.15;;;;;;;15.82;88.18;100946.16;5115892;28;20040;-61
2023/09/19 07:57:35;;;;;;;15.80;3.45;;;;;;;15.99;87.19;100941.53;5116200;28;20061;-61
2023/09/19 08:00:00;;;;;;;11.45;3.05;;;;;;;16.09;86.63;100937.88;5115723;28;20027;-61
2023/09/19 08:02:28;;;;;;;15.57;3.28;;;;;;;16.22;85.92;100947.50;5115996;28;20111;-61
2023/09/19 08:04:53;;;;;;;17.23;3.58;;;;;;;16.28;84.59;100947.44;5115808;28;20028;-61
2023/09/19 08:07:19;;;;;;;13.32;3.60;;;;;;;16.44;84.43;100945.47;5114489;28;20038;-62
2023/09/19 08:09:46;;;;;;;15.07;3.30;;;;;;;16.47;84.36;100953.44;5115946;28;20059;-62
2023/09/19 08:12:11;;;;;;;15.18;3.60;;;;;;;16.57;83.82;100958.66;5115863;28;20035;-62
2023/09/19 08:14:41;;;;;;;14.60;3.13;;;;;;;16.69;82.96;100947.84;5115447;28;20019;-61
2023/09/19 08:17:08;;;;;;;16.52;3.28;;;;;;;16.71;83.63;100962.94;5115798;28;20473;-61
2023/09/19 08:19:33;;;;;;;12.60;3.25;;;;;;;16.74;82.92;100952.28;5115195;28;20126;-62
2023/09/19 08:21:59;;;;;;;12.73;3.40;;;;;;;16.78;83.21;100945.97;5115441;28;20055;-61
2023/09/19 08:24:28;;;;;;;14.15;3.28;;;;;;;16.90;82.44;100944.94;5115327;28;20030;-62
2023/09/19 08:26:54;;;;;;;15.38;3.45;;;;;;;16.98;82.40;100947.50;5115273;28;20506;-62
2023/09/19 08:29:20;;;;;;;14.43;3.10;;;;;;;17.00;81.27;100949.25;5115370;28;20047;-62
2023/09/19 08:31:49;;;;;;;17.08;3.20;;;;;;;17.19;81.85;100944.50;5113909;28;20020;-61
2023/09/19 08:34:15;;;;;;;11.60;3.03;;;;;;;17.16;80.02;100949.91;5115308;28;20031;-61
2023/09/19 08:36:41;;;;;;;16.55;3.25;;;;;;;17.22;81.49;100955.16;5115005;28;20024;-61
2023/09/19 08:39:08;;;;;;;13.23;2.90;;;;;;;17.40;81.02;100955.78;5114874;28;20058;-61
2023/09/19 08:41:34;;;;;;;16.13;3.08;;;;;;;17.58;78.55;100952.81;5115161;28;20030;-62
2023/09/19 08:44:03;;;;;;;12.65;3.38;;;;;;;17.76;78.45;100946.31;5115297;28;20032;-63
2023/09/19 08:46:31;;;;;;;15.70;3.38;;;;;;;17.88;77.66;100940.75;5115016;28;20524;-60
2023/09/19 08:49:13;;;;;;;13.32;2.90;;;;;;;17.85;77.97;100948.81;5114912;28;20030;-62
2023/09/19 08:51:46;;;;;;;14.80;3.28;;;;;;;17.85;77.83;100943.47;5114947;28;20111;-62
2023/09/19 08:54:35;;;;;;;13.75;3.20;;;;;;;17.96;77.79;100937.94;5114715;28;20035;-62
2023/09/19 08:57:10;;;;;;;13.00;3.42;;;;;;;17.84;76.38;100947.06;5114587;28;20031;-62
2023/09/19 08:59:40;;;;;;;16.95;2.95;;;;;;;17.93;77.56;100952.25;5114701;28;20040;-62
2023/09/19 09:02:14;;;;;;;13.27;2.90;;;;;;;18.31;76.95;100947.09;5114706;28;20031;-62
2023/09/19 09:04:44;;;;;;;13.02;3.30;;;;;;;18.26;74.63;100955.22;5114861;28;20038;-61
2023/09/19 09:07:13;;;;;;;14.93;3.50;;;;;;;18.22;76.24;100935.66;5115012;28;20123;-62
2023/09/19 09:09:42;;;;;;;17.08;3.30;;;;;;;18.39;76.29;100946.03;5114750;28;20157;-62
2023/09/19 09:12:16;;;;;;;17.88;3.50;;;;;;;18.73;75.70;100940.91;5114810;28;20150;-61
2023/09/19 09:14:49;;;;;;;15.10;3.60;;;;;;;18.86;74.13;100941.50;5114692;28;20035;-61
2023/09/19 09:17:21;;;;;;;10.65;3.22;;;;;;;19.17;73.54;100948.84;5113128;28;20031;-62
2023/09/19 09:19:49;;;;;;;18.08;3.38;;;;;;;19.07;71.76;100950.88;5113228;28;20559;-62
2023/09/19 09:22:18;;;;;;;14.35;3.35;;;;;;;19.06;71.29;100956.25;5114460;28;20035;-62
2023/09/19 09:24:54;;;;;;;15.48;3.35;;;;;;;19.11;70.65;100951.69;5114016;28;20035;-61
2023/09/19 09:27:20;;;;;;;16.90;3.50;;;;;;;19.34;70.78;100943.09;5114306;28;20122;-62
2023/09/19 09:29:47;;;;;;;14.00;3.08;;;;;;;19.44;69.14;100950.91;5114575;28;20031;-62
2023/09/19 09:32:36;;;;;;;12.60;3.28;;;;;;;19.56;70.72;100954.19;5114513;28;20095;-61
2023/09/19 09:35:09;;;;;;;12.00;3.53;;;;;;;19.52;69.66;100932.81;5114584;28;20374;-61
2023/09/19 09:37:38;;;;;;;10.98;3.35;;;;;;;19.70;69.83;100927.97;5114232;28;20389;-61
2023/09/19 09:42:39;;;;;;;16.90;3.40;;;;;;;19.72;68.37;100934.16;5114499;28;20117;-61
2023/09/19 09:48:31;;;;;;;10.93;3.38;;;;;;;19.69;68.43;100921.69;5104891;28;20130;-62
2023/09/19 09:50:59;;;;;;;12.20;3.28;;;;;;;19.86;67.76;100913.22;5113989;28;20453;-63
2023/09/19 09:53:30;;;;;;;14.20;3.38;;;;;;;19.87;67.11;100923.03;5112713;28;20374;-62
2023/09/19 09:56:05;;;;;;;14.57;2.92;;;;;;;19.99;66.45;100924.50;5113993;28;20028;-60
2023/09/19 09:58:32;;;;;;;10.40;3.22;;;;;;;19.84;66.08;100917.75;5112544;28;20028;-63
2023/09/19 10:01:01;;;;;;;13.57;3.33;;;;;;;19.99;66.30;100937.91;5113700;28;20020;-61
2023/09/19 10:03:43;;;;;;;14.27;3.70;;;;;;;20.07;65.75;100938.59;5114161;28;20032;-61
2023/09/19 10:09:14;;;;;;;14.15;3.50;;;;;;;20.29;64.38;100914.72;5113739;28;20043;-62
2023/09/19 10:11:46;;;;;;;14.93;3.35;;;;;;;20.62;64.56;100938.88;5113722;28;20082;-61
2023/09/19 10:14:15;;;;;;;13.00;3.35;;;;;;;20.62;61.88;100929.00;5112389;28;20031;-60
2023/09/19 10:16:46;;;;;;;13.73;3.53;;;;;;;20.40;63.41;100938.59;5113326;28;20024;-61
2023/09/19 10:19:16;;;;;;;12.18;3.13;;;;;;;20.39;62.80;100931.47;5113342;28;20023;-61
2023/09/19 10:21:43;;;;;;;15.27;3.63;;;;;;;20.21;63.56;100927.47;5112927;28;20024;-60
2023/09/19 10:24:09;;;;;;;10.82;3.22;;;;;;;20.25;64.47;100935.38;5113202;28;20015;-60
2023/09/19 10:26:36;;;;;;;12.00;3.20;;;;;;;20.35;63.32;100916.38;5113238;28;20457;-62
2023/09/19 10:29:03;;;;;;;12.32;3.10;;;;;;;20.59;64.10;100915.66;5113268;28;20035;-61
2023/09/19 10:31:30;;;;;;;14.02;3.30;;;;;;;20.82;61.83;100922.19;5113444;28;20070;-61
2023/09/19 10:33:57;;;;;;;14.23;3.35;;;;;;;20.88;61.02;100916.59;5112903;28;20586;-61
2023/09/19 10:36:27;;;;;;;13.15;3.42;;;;;;;21.05;61.54;100911.59;5112749;28;20054;-61
2023/09/19 10:38:56;;;;;;;13.80;3.10;;;;;;;21.07;60.27;100920.50;5111073;28;20450;-61
2023/09/19 10:41:22;;;;;;;10.93;3.00;;;;;;;21.08;60.79;100935.69;5112992;28;20495;-60
2023/09/19 10:43:48;;;;;;;15.30;3.10;;;;;;;21.08;59.78;100927.63;5112811;28;20024;-61
2023/09/19 10:46:14;;;;;;;11.25;3.15;;;;;;;21.23;59.32;100929.81;5112801;28;20035;-60
2023/09/19 10:48:43;;;;;;;8.38;3.05;;;;;;;21.06;58.53;100916.03;5112472;28;20366;-62
2023/09/19 10:51:13;;;;;;;10.48;2.97;;;;;;;21.25;59.07;100946.78;5112616;28;20401;-62
2023/09/19 10:53:53;;;;;;;16.70;3.33;;;;;;;21.31;60.34;100913.44;5112611;28;20038;-60
2023/09/19 10:56:36;;;;;;;12.68;3.00;;;;;;;21.27;60.17;100912.66;5112789;28;20026;-61
2023/09/19 10:59:10;;;;;;;10.85;2.75;;;;;;;21.29;59.41;100901.88;5112835;28;20032;-60
2023/09/19 11:01:51;;;;;;;11.07;3.10;;;;;;;21.18;58.99;100893.25;5113095;28;20039;-60
2023/09/19 11:04:33;;;;;;;10.90;3.00;;;;;;;21.15;58.66;100907.66;5112678;28;20357;-61
2023/09/19 11:07:16;;;;;;;6.78;2.47;;;;;;;21.16;58.18;100909.44;5113014;28;20110;-61
2023/09/19 11:10:01;;;;;;;15.30;2.80;;;;;;;21.10;57.62;100895.31;5111501;28;20038;-60
2023/09/19 11:12:40;;;;;;;11.20;2.72;;;;;;;21.02;59.22;100883.00;5112827;28;20054;-61
2023/09/19 11:15:13;;;;;;;11.23;2.80;;;;;;;21.17;58.40;100884.31;5112916;28;20097;-61
2023/09/19 11:17:46;;;;;;;9.53;2.83;;;;;;;21.28;57.17;100889.34;5112901;28;20038;-60
2023/09/19 11:22:48;;;;;;;9.80;3.10;;;;;;;21.11;58.18;100887.22;5112563;28;20114;-60
2023/09/19 11:25:39;;;;;;;9.05;2.70;;;;;;;20.97;57.36;100867.97;5112640;28;20449;-62
2023/09/19 11:28:14;;;;;;;11.27;2.92;;;;;;;21.18;57.20;100871.75;5112882;28;20032;-61
2023/09/19 11:30:48;;;;;;;7.22;2.90;;;;;;;21.32;56.97;100869.53;5112829;28;20035;-61
2023/09/19 11:33:38;;;;;;;12.55;2.78;;;;;;;21.46;56.77;100861.03;5112379;28;20051;-62
2023/09/19 11:36:18;;;;;;;10.63;2.70;;;;;;;21.69;55.94;100850.34;5112507;28;20032;-60
2023/09/19 11:38:47;;;;;;;10.93;2.85;;;;;;;21.91;55.76;100847.75;5112356;28;20039;-62
2023/09/19 11:41:21;;;;;;;9.50;2.67;;;;;;;22.06;55.00;100850.84;5112868;28;20042;-61